createdAt,value
2023-02-27T00:01:01.168Z,4.20
2023-02-27T00:03:29.564Z,4.90
2023-02-27T00:05:58.108Z,4.40
2023-02-27T00:08:26.511Z,5.00
2023-02-27T00:10:54.868Z,4.00
2023-02-27T00:13:23.970Z,3.50
2023-02-27T00:15:53.701Z,3.70
2023-02-27T00:18:22.861Z,3.70
2023-02-27T00:20:50.829Z,4.00
2023-02-27T00:23:19.183Z,5.20
2023-02-27T00:25:48.329Z,4.80
2023-02-27T00:28:17.110Z,6.20
2023-02-27T00:30:45.390Z,4.80
2023-02-27T00:33:14.378Z,4.00
2023-02-27T00:35:42.644Z,2.70
2023-02-27T00:38:10.973Z,3.90
2023-02-27T00:40:39.225Z,3.70
2023-02-27T00:43:07.235Z,3.50
2023-02-27T00:45:35.232Z,4.30
2023-02-27T00:48:03.204Z,3.90
2023-02-27T00:50:31.274Z,3.60
2023-02-27T00:52:59.356Z,3.80
2023-02-27T00:55:27.548Z,4.40
2023-02-27T00:57:56.060Z,3.90
2023-02-27T01:00:24.798Z,4.00
2023-02-27T01:02:55.098Z,2.90
2023-02-27T01:05:26.065Z,4.20
2023-02-27T01:07:54.774Z,4.50
2023-02-27T01:10:23.440Z,5.20
2023-02-27T01:12:51.604Z,5.10
2023-02-27T01:15:20.502Z,3.40
2023-02-27T01:17:49.610Z,7.00
2023-02-27T01:20:19.708Z,4.60
2023-02-27T01:22:48.771Z,3.40
2023-02-27T01:25:16.957Z,3.60
2023-02-27T01:27:45.016Z,4.40
2023-02-27T01:30:15.896Z,4.20
2023-02-27T01:32:45.721Z,4.40
2023-02-27T01:35:14.391Z,4.20
2023-02-27T01:37:42.564Z,3.90
2023-02-27T01:40:13.517Z,4.30
2023-02-27T01:42:42.258Z,4.10
2023-02-27T01:45:13.239Z,4.10
2023-02-27T01:47:53.695Z,3.10
2023-02-27T01:50:23.000Z,4.30
2023-02-27T01:53:00.113Z,3.70
2023-02-27T01:55:32.209Z,3.50
2023-02-27T01:58:01.347Z,4.10
2023-02-27T02:00:30.847Z,4.30
2023-02-27T02:03:29.651Z,3.50
2023-02-27T02:06:02.069Z,4.10
2023-02-27T02:08:36.360Z,3.70
2023-02-27T02:11:07.686Z,3.30
2023-02-27T02:13:39.419Z,2.80
2023-02-27T02:17:11.428Z,4.00
2023-02-27T02:20:07.692Z,2.90
2023-02-27T02:23:03.769Z,4.10
2023-02-27T02:25:56.866Z,3.50
2023-02-27T02:28:56.456Z,3.30
2023-02-27T02:32:06.423Z,4.10
2023-02-27T02:34:52.674Z,3.70
2023-02-27T02:38:17.589Z,3.10
2023-02-27T02:41:03.320Z,5.50
2023-02-27T02:43:57.968Z,4.30
2023-02-27T02:46:31.790Z,3.10
2023-02-27T02:49:29.601Z,3.90
2023-02-27T02:52:44.939Z,4.00
2023-02-27T02:55:22.936Z,3.30
2023-02-27T02:58:10.967Z,4.50
2023-02-27T03:01:06.023Z,4.30
2023-02-27T03:03:47.862Z,4.20
2023-02-27T03:06:31.719Z,3.40
2023-02-27T03:09:09.031Z,5.60
2023-02-27T03:11:44.338Z,3.40
2023-02-27T03:14:48.468Z,4.40
2023-02-27T03:17:29.720Z,4.50
2023-02-27T03:20:06.331Z,4.60
2023-02-27T03:22:43.807Z,3.80
2023-02-27T03:25:15.360Z,4.80
2023-02-27T03:27:55.496Z,4.10
2023-02-27T03:31:10.058Z,4.00
2023-02-27T03:33:52.076Z,4.10
2023-02-27T03:36:29.776Z,4.20
2023-02-27T03:39:17.207Z,4.10
2023-02-27T03:42:01.036Z,3.80
2023-02-27T03:45:30.449Z,3.20
2023-02-27T03:47:59.554Z,4.10
2023-02-27T03:50:28.029Z,3.90
2023-02-27T03:52:57.529Z,3.50
2023-02-27T03:55:34.254Z,4.00
2023-02-27T03:58:02.891Z,3.20
2023-02-27T04:00:31.679Z,3.40
2023-02-27T04:03:01.765Z,3.90
2023-02-27T04:05:31.001Z,4.00
2023-02-27T04:08:22.964Z,4.50
2023-02-27T04:11:29.558Z,3.40
2023-02-27T04:14:27.661Z,4.10
2023-02-27T04:17:23.383Z,3.70
2023-02-27T04:20:19.658Z,3.50
2023-02-27T04:23:19.996Z,3.80
2023-02-27T04:26:04.214Z,4.00
2023-02-27T04:28:41.607Z,3.70
2023-02-27T04:31:25.458Z,4.40
2023-02-27T04:34:05.809Z,4.80
2023-02-27T04:36:53.136Z,3.90
2023-02-27T04:39:46.601Z,4.10
2023-02-27T04:42:25.745Z,3.90
2023-02-27T04:45:00.795Z,3.70
2023-02-27T04:47:35.206Z,4.10
2023-02-27T04:50:40.142Z,3.40
2023-02-27T04:53:31.412Z,4.20
2023-02-27T04:56:17.130Z,4.20
2023-02-27T04:58:57.549Z,4.10
2023-02-27T05:01:43.972Z,4.00
2023-02-27T05:04:18.788Z,4.70
2023-02-27T05:09:42.870Z,3.60
2023-02-27T05:12:44.975Z,4.30
2023-02-27T05:15:22.408Z,4.30
2023-02-27T05:18:03.968Z,4.60
2023-02-27T05:21:01.611Z,4.50
2023-02-27T05:24:27.254Z,4.10
2023-02-27T05:27:14.174Z,4.30
2023-02-27T05:29:54.485Z,4.30
2023-02-27T05:32:42.082Z,5.10
2023-02-27T05:35:34.231Z,5.70
2023-02-27T05:38:25.065Z,4.60
2023-02-27T05:41:15.547Z,5.00
2023-02-27T05:44:07.322Z,4.30
2023-02-27T05:46:44.197Z,4.10
2023-02-27T05:49:24.967Z,4.30
2023-02-27T05:51:57.331Z,4.50
2023-02-27T05:54:56.065Z,5.60
2023-02-27T05:57:51.456Z,4.70
2023-02-27T06:00:43.472Z,6.00
2023-02-27T06:03:12.376Z,5.00
2023-02-27T06:05:43.684Z,4.20
2023-02-27T06:08:12.460Z,5.30
2023-02-27T06:10:40.468Z,6.30
2023-02-27T06:13:08.549Z,4.40
2023-02-27T06:15:39.121Z,10.20
2023-02-27T06:18:07.094Z,9.60
2023-02-27T06:20:35.220Z,7.70
2023-02-27T06:23:03.400Z,13.20
2023-02-27T06:25:31.887Z,13.80
2023-02-27T06:28:00.073Z,9.20
2023-02-27T06:30:28.810Z,10.00
2023-02-27T06:32:57.331Z,11.50
2023-02-27T06:35:25.721Z,10.20
2023-02-27T06:37:53.872Z,10.10
2023-02-27T06:40:22.376Z,11.10
2023-02-27T06:42:50.430Z,10.20
2023-02-27T06:45:18.882Z,10.70
2023-02-27T06:47:47.498Z,10.80
2023-02-27T06:50:15.738Z,8.60
2023-02-27T06:52:43.835Z,10.30
2023-02-27T06:55:12.150Z,12.10
2023-02-27T06:57:40.619Z,8.00
2023-02-27T07:00:11.980Z,10.90
2023-02-27T07:02:40.426Z,9.00
2023-02-27T07:05:13.417Z,11.40
2023-02-27T07:07:42.217Z,10.10
2023-02-27T07:10:14.552Z,9.60
2023-02-27T07:12:43.067Z,7.00
2023-02-27T07:15:11.847Z,10.30
2023-02-27T07:17:40.287Z,10.50
2023-02-27T07:20:11.755Z,8.50
2023-02-27T07:22:41.217Z,9.10
2023-02-27T07:25:10.098Z,9.80
2023-02-27T07:27:38.702Z,9.10
2023-02-27T07:30:08.067Z,9.90
2023-02-27T07:32:36.339Z,8.80
2023-02-27T07:35:05.045Z,11.10
2023-02-27T07:37:33.205Z,6.30
2023-02-27T07:40:01.583Z,9.50
2023-02-27T07:42:29.860Z,8.50
2023-02-27T07:44:57.879Z,7.00
2023-02-27T07:47:26.614Z,8.60
2023-02-27T07:49:55.409Z,5.60
2023-02-27T07:52:24.921Z,9.20
2023-02-27T07:54:53.322Z,7.20
2023-02-27T07:57:21.488Z,8.00
2023-02-27T07:59:49.648Z,6.90
2023-02-27T08:02:17.724Z,6.30
2023-02-27T08:04:45.843Z,6.40
2023-02-27T08:07:13.958Z,8.00
2023-02-27T08:09:42.235Z,6.80
2023-02-27T08:12:10.843Z,8.80
2023-02-27T08:14:39.809Z,6.30
2023-02-27T08:17:08.292Z,8.80
2023-02-27T08:19:36.471Z,5.80
2023-02-27T08:22:05.665Z,6.70
2023-02-27T08:24:33.940Z,5.80
2023-02-27T08:27:02.319Z,7.10
2023-02-27T08:29:32.374Z,5.80
2023-02-27T08:32:02.591Z,6.10
2023-02-27T08:34:30.934Z,7.20
2023-02-27T08:36:59.436Z,7.20
2023-02-27T08:39:27.592Z,5.90
2023-02-27T08:41:55.969Z,6.60
2023-02-27T08:44:24.273Z,6.10
2023-02-27T08:46:52.524Z,6.20
2023-02-27T08:49:22.787Z,6.60
2023-02-27T08:51:51.214Z,7.20
2023-02-27T08:54:20.970Z,7.10
2023-02-27T08:56:49.147Z,5.70
2023-02-27T08:59:17.383Z,6.10
2023-02-27T09:01:45.456Z,5.80
2023-02-27T09:04:13.604Z,5.30
2023-02-27T09:06:41.600Z,5.60
2023-02-27T09:09:09.679Z,7.60
2023-02-27T09:11:38.922Z,6.20
2023-02-27T09:14:08.073Z,5.70
2023-02-27T09:16:36.168Z,6.90
2023-02-27T09:19:04.968Z,5.70
2023-02-27T09:21:33.516Z,7.60
2023-02-27T09:24:17.103Z,6.30
2023-02-27T09:26:49.469Z,6.30
2023-02-27T09:29:19.004Z,5.00
2023-02-27T09:31:47.312Z,4.80
2023-02-27T09:34:15.894Z,6.20
2023-02-27T09:36:44.139Z,4.70
2023-02-27T09:39:12.138Z,4.70
2023-02-27T09:41:53.732Z,5.20
2023-02-27T09:44:45.776Z,4.80
2023-02-27T09:47:35.945Z,4.50
2023-02-27T09:50:27.518Z,4.80
2023-02-27T09:52:55.634Z,5.40
2023-02-27T09:55:30.069Z,4.30
2023-02-27T09:58:16.853Z,5.50
2023-02-27T10:01:06.104Z,5.20
2023-02-27T10:03:43.726Z,4.80
2023-02-27T10:06:28.672Z,5.60
2023-02-27T10:09:21.799Z,4.80
2023-02-27T10:12:17.287Z,4.50
2023-02-27T10:17:51.547Z,4.80
2023-02-27T10:20:36.709Z,6.00
2023-02-27T10:25:50.853Z,5.20
2023-02-27T10:28:22.504Z,3.30
2023-02-27T10:30:57.132Z,5.40
2023-02-27T10:33:32.493Z,4.50
2023-02-27T10:36:03.044Z,5.30
2023-02-27T10:38:44.738Z,6.60
2023-02-27T10:41:17.297Z,4.60
2023-02-27T10:43:46.331Z,4.20
2023-02-27T10:46:30.048Z,3.50
2023-02-27T10:49:00.742Z,5.60
2023-02-27T10:51:33.635Z,4.90
2023-02-27T10:54:25.077Z,5.10
2023-02-27T10:57:01.011Z,5.20
2023-02-27T10:59:36.867Z,4.70
2023-02-27T11:02:25.188Z,3.70
2023-02-27T11:04:57.137Z,5.00
2023-02-27T11:07:38.717Z,5.00
2023-02-27T11:10:27.933Z,5.00
2023-02-27T11:13:21.809Z,3.40
2023-02-27T11:16:14.249Z,4.70
2023-02-27T11:18:46.435Z,4.10
2023-02-27T11:21:30.176Z,4.10
2023-02-27T11:24:07.922Z,4.10
2023-02-27T11:26:41.231Z,3.90
2023-02-27T11:29:19.041Z,4.00
2023-02-27T11:32:03.360Z,3.40
2023-02-27T11:34:38.375Z,4.20
2023-02-27T11:37:35.758Z,4.00
2023-02-27T11:40:10.823Z,4.20
2023-02-27T11:43:03.587Z,3.70
2023-02-27T11:46:16.248Z,4.40
2023-02-27T11:49:04.584Z,4.70
2023-02-27T11:52:05.705Z,2.60
2023-02-27T11:54:50.760Z,4.10
2023-02-27T12:00:33.642Z,3.80
2023-02-27T12:03:41.430Z,3.40
2023-02-27T12:06:26.582Z,3.60
2023-02-27T12:11:46.900Z,3.20
2023-02-27T12:14:45.934Z,3.20
2023-02-27T12:17:46.337Z,4.00
2023-02-27T12:20:36.009Z,3.70
2023-02-27T12:23:19.029Z,3.20
2023-02-27T12:26:04.108Z,3.90
2023-02-27T12:28:46.101Z,2.80
2023-02-27T12:31:41.127Z,3.40
2023-02-27T12:34:41.037Z,3.50
2023-02-27T12:37:19.227Z,3.00
2023-02-27T12:39:48.423Z,3.10
2023-02-27T12:42:57.562Z,3.30
2023-02-27T12:46:17.956Z,3.80
2023-02-27T12:49:30.264Z,2.70
2023-02-27T12:52:35.639Z,3.90
2023-02-27T12:55:18.224Z,3.40
2023-02-27T12:57:58.274Z,2.70
2023-02-27T13:00:47.305Z,4.10
2023-02-27T13:03:37.789Z,3.90
2023-02-27T13:06:14.156Z,3.30
2023-02-27T13:09:14.744Z,3.80
2023-02-27T13:12:35.147Z,2.40
2023-02-27T13:15:19.904Z,3.00
2023-02-27T13:17:59.343Z,4.10
2023-02-27T13:20:45.852Z,2.80
2023-02-27T13:23:19.968Z,2.50
2023-02-27T13:25:51.900Z,4.30
2023-02-27T13:28:27.526Z,3.40
2023-02-27T13:31:22.813Z,3.40
2023-02-27T13:36:44.324Z,3.00
2023-02-27T13:39:40.976Z,3.30
2023-02-27T13:42:27.572Z,3.80
2023-02-27T13:44:57.177Z,3.60
2023-02-27T13:47:31.087Z,3.70
2023-02-27T13:50:21.310Z,3.80
2023-02-27T13:52:49.963Z,2.60
2023-02-27T13:55:35.441Z,3.10
2023-02-27T13:58:05.895Z,2.40
2023-02-27T14:00:38.060Z,3.40
2023-02-27T14:03:30.133Z,4.10
2023-02-27T14:06:05.170Z,4.70
2023-02-27T14:08:49.875Z,3.10
2023-02-27T14:11:27.337Z,5.50
2023-02-27T14:13:57.760Z,2.90
2023-02-27T14:16:38.459Z,2.90
2023-02-27T14:19:16.186Z,3.40
2023-02-27T14:22:01.575Z,2.80
2023-02-27T14:24:44.831Z,3.20
2023-02-27T14:27:52.044Z,4.90
2023-02-27T14:30:33.163Z,3.40
2023-02-27T14:33:47.277Z,2.90
2023-02-27T14:36:26.959Z,3.00
2023-02-27T14:38:58.972Z,3.60
2023-02-27T14:41:48.352Z,3.80
2023-02-27T14:44:28.056Z,2.70
2023-02-27T14:47:03.997Z,2.30
2023-02-27T14:49:36.102Z,2.70
2023-02-27T14:52:30.641Z,2.90
2023-02-27T14:55:22.041Z,2.80
2023-02-27T14:58:08.546Z,3.40
2023-02-27T15:00:50.038Z,3.30
2023-02-27T15:03:22.921Z,2.30
2023-02-27T15:05:55.436Z,3.10
2023-02-27T15:08:40.786Z,2.90
2023-02-27T15:11:15.848Z,3.10
2023-02-27T15:13:45.975Z,2.00
2023-02-27T15:16:26.441Z,2.90
2023-02-27T15:19:11.954Z,2.90
2023-02-27T15:21:50.270Z,3.20
2023-02-27T15:24:49.126Z,3.80
2023-02-27T15:27:22.841Z,2.80
2023-02-27T15:30:00.393Z,3.40
2023-02-27T15:32:41.551Z,2.70
2023-02-27T15:35:22.421Z,2.50
2023-02-27T15:38:00.344Z,3.40
2023-02-27T15:40:34.482Z,3.30
2023-02-27T15:43:03.748Z,3.10
2023-02-27T15:45:36.141Z,2.80
2023-02-27T15:48:05.532Z,2.80
2023-02-27T15:50:38.223Z,3.00
2023-02-27T15:53:28.382Z,3.40
2023-02-27T15:56:06.300Z,3.10
2023-02-27T15:58:38.982Z,2.80
2023-02-27T16:01:20.035Z,3.00
2023-02-27T16:03:55.583Z,3.20
2023-02-27T16:06:33.158Z,2.10
2023-02-27T16:09:24.606Z,3.20
2023-02-27T16:12:32.859Z,5.60
2023-02-27T16:15:40.122Z,4.50
2023-02-27T16:18:09.314Z,4.50
2023-02-27T16:20:55.196Z,4.60
2023-02-27T16:23:29.893Z,4.50
2023-02-27T16:26:33.476Z,5.20
2023-02-27T16:29:24.004Z,3.80
2023-02-27T16:31:56.159Z,4.50
2023-02-27T16:34:46.019Z,3.90
2023-02-27T16:37:48.147Z,5.00
2023-02-27T16:40:27.402Z,4.90
2023-02-27T16:42:58.527Z,4.70
2023-02-27T16:45:29.735Z,4.80
2023-02-27T16:48:00.728Z,5.10
2023-02-27T16:50:35.336Z,4.90
2023-02-27T16:53:04.126Z,4.40
2023-02-27T16:55:33.749Z,4.10
2023-02-27T16:58:02.118Z,5.00
2023-02-27T17:00:31.091Z,5.10
2023-02-27T17:02:59.278Z,5.60
2023-02-27T17:05:27.661Z,6.90
2023-02-27T17:07:56.045Z,6.90
2023-02-27T17:10:25.642Z,7.20
2023-02-27T17:12:53.717Z,6.60
2023-02-27T17:15:22.462Z,6.50
2023-02-27T17:17:51.192Z,7.00
2023-02-27T17:20:19.477Z,7.30
2023-02-27T17:22:47.763Z,7.00
2023-02-27T17:25:15.925Z,7.00
2023-02-27T17:27:44.476Z,9.70
2023-02-27T17:30:15.146Z,7.80
2023-02-27T17:32:43.313Z,8.50
2023-02-27T17:35:12.100Z,8.30
2023-02-27T17:37:40.281Z,9.60
2023-02-27T17:40:09.713Z,7.40
2023-02-27T17:42:39.493Z,9.00
2023-02-27T17:45:09.961Z,9.20
2023-02-27T17:47:38.089Z,9.10
2023-02-27T17:50:07.291Z,9.40
2023-02-27T17:52:37.514Z,9.50
2023-02-27T17:55:08.666Z,9.00
2023-02-27T17:57:39.489Z,9.50
2023-02-27T18:00:17.063Z,10.20
2023-02-27T18:02:45.742Z,10.00
2023-02-27T18:05:14.562Z,10.00
2023-02-27T18:07:42.738Z,9.00
2023-02-27T18:10:14.185Z,8.90
2023-02-27T18:12:43.076Z,9.00
2023-02-27T18:15:11.762Z,9.20
2023-02-27T18:17:39.935Z,10.00
2023-02-27T18:20:10.224Z,9.40
2023-02-27T18:22:38.436Z,10.10
2023-02-27T18:25:07.860Z,9.00
2023-02-27T18:27:36.653Z,9.80
2023-02-27T18:30:06.188Z,9.90
2023-02-27T18:32:34.410Z,9.00
2023-02-27T18:35:03.202Z,8.80
2023-02-27T18:37:31.380Z,10.20
2023-02-27T18:39:59.749Z,8.10
2023-02-27T18:42:28.036Z,7.80
2023-02-27T18:44:56.100Z,9.60
2023-02-27T18:47:24.456Z,9.10
2023-02-27T18:49:52.654Z,8.50
2023-02-27T18:52:20.837Z,8.80
2023-02-27T18:54:49.216Z,8.50
2023-02-27T18:57:17.802Z,8.60
2023-02-27T18:59:47.743Z,8.50
2023-02-27T19:02:19.827Z,7.50
2023-02-27T19:04:49.387Z,7.40
2023-02-27T19:07:19.766Z,9.30
2023-02-27T19:09:48.388Z,7.00
2023-02-27T19:12:17.590Z,7.20
2023-02-27T19:14:47.609Z,8.80
2023-02-27T19:17:15.642Z,8.00
2023-02-27T19:19:44.718Z,7.50
2023-02-27T19:22:12.961Z,8.00
2023-02-27T19:24:41.077Z,7.50
2023-02-27T19:27:09.198Z,7.60
2023-02-27T19:29:37.941Z,7.90
2023-02-27T19:32:08.466Z,7.50
2023-02-27T19:34:36.788Z,8.00
2023-02-27T19:37:04.982Z,7.40
2023-02-27T19:39:33.547Z,8.60
2023-02-27T19:42:01.624Z,7.50
2023-02-27T19:44:29.691Z,7.30
2023-02-27T19:46:57.800Z,7.10
2023-02-27T19:49:26.344Z,7.50
2023-02-27T19:51:54.424Z,7.30
2023-02-27T19:54:22.507Z,7.80
2023-02-27T19:56:50.770Z,7.90
2023-02-27T19:59:19.365Z,6.40
2023-02-27T20:01:48.553Z,8.30
2023-02-27T20:04:17.932Z,9.30
2023-02-27T20:06:49.700Z,8.90
2023-02-27T20:09:20.588Z,9.90
2023-02-27T20:11:57.022Z,9.80
2023-02-27T20:14:25.091Z,9.90
2023-02-27T20:16:54.467Z,10.10
2023-02-27T20:19:24.529Z,10.80
2023-02-27T20:21:54.525Z,11.20
2023-02-27T20:24:24.737Z,11.30
2023-02-27T20:26:54.767Z,11.30
2023-02-27T20:29:26.994Z,12.20
2023-02-27T20:31:57.659Z,10.80
2023-02-27T20:34:28.206Z,10.70
2023-02-27T20:36:57.911Z,11.00
2023-02-27T20:39:28.160Z,11.50
2023-02-27T20:41:57.027Z,11.50
2023-02-27T20:44:25.300Z,12.20
2023-02-27T20:46:53.257Z,13.60
2023-02-27T20:49:22.978Z,12.80
2023-02-27T20:51:51.045Z,13.00
2023-02-27T20:54:20.773Z,13.10
2023-02-27T20:56:57.458Z,13.20
2023-02-27T20:59:26.025Z,13.20
2023-02-27T21:01:55.005Z,13.10
2023-02-27T21:04:26.507Z,12.70
2023-02-27T21:06:55.964Z,21.10
2023-02-27T21:09:23.914Z,12.80
2023-02-27T21:11:52.018Z,12.30
2023-02-27T21:14:21.716Z,12.70
2023-02-27T21:16:50.001Z,12.20
2023-02-27T21:19:18.216Z,12.20
2023-02-27T21:21:46.237Z,12.90
2023-02-27T21:24:15.082Z,13.90
2023-02-27T21:26:43.533Z,11.40
2023-02-27T21:29:18.699Z,15.60
2023-02-27T21:31:50.570Z,13.80
2023-02-27T21:34:23.568Z,13.80
2023-02-27T21:36:52.742Z,12.80
2023-02-27T21:39:26.248Z,13.50
2023-02-27T21:41:55.370Z,12.80
2023-02-27T21:44:25.354Z,13.10
2023-02-27T21:46:55.185Z,13.90
2023-02-27T21:49:27.409Z,12.10
2023-02-27T21:51:55.966Z,14.70
2023-02-27T21:54:24.434Z,13.50
2023-02-27T21:56:52.737Z,13.80
2023-02-27T21:59:21.803Z,12.90
2023-02-27T22:01:50.186Z,13.70
2023-02-27T22:04:20.446Z,11.70
2023-02-27T22:06:50.922Z,12.40
2023-02-27T22:09:19.871Z,13.00
2023-02-27T22:11:49.057Z,13.70
2023-02-27T22:14:17.498Z,13.20
2023-02-27T22:16:45.516Z,11.50
2023-02-27T22:19:20.155Z,11.40
2023-02-27T22:21:49.256Z,10.60
2023-02-27T22:24:17.758Z,11.90
2023-02-27T22:26:47.936Z,11.90
2023-02-27T22:29:17.412Z,11.30
2023-02-27T22:31:46.142Z,11.50
2023-02-27T22:34:18.659Z,11.60
2023-02-27T22:36:48.926Z,11.20
2023-02-27T22:39:16.926Z,11.30
2023-02-27T22:41:46.382Z,11.50
2023-02-27T22:44:16.885Z,10.70
2023-02-27T22:46:49.001Z,11.80
2023-02-27T22:49:23.385Z,12.20
2023-02-27T22:51:52.607Z,11.00
2023-02-27T22:54:23.138Z,11.30
2023-02-27T22:56:54.340Z,12.30
2023-02-27T22:59:24.035Z,11.60
2023-02-27T23:01:52.472Z,11.70
2023-02-27T23:04:22.341Z,10.20
2023-02-27T23:06:52.795Z,11.00
2023-02-27T23:09:25.407Z,11.00
2023-02-27T23:11:54.684Z,11.60
2023-02-27T23:14:23.181Z,10.30
2023-02-27T23:16:51.735Z,10.60
2023-02-27T23:19:22.485Z,10.50
2023-02-27T23:21:51.433Z,10.30
2023-02-27T23:24:20.273Z,11.20
2023-02-27T23:26:51.905Z,11.60
2023-02-27T23:29:20.406Z,12.00
2023-02-27T23:31:49.311Z,10.80
2023-02-27T23:34:17.893Z,11.30
2023-02-27T23:36:46.056Z,12.70
2023-02-27T23:39:14.129Z,11.70
2023-02-27T23:41:42.503Z,12.20
2023-02-27T23:44:10.887Z,12.20
2023-02-27T23:46:39.236Z,11.70
2023-02-27T23:49:07.741Z,12.00
2023-02-27T23:51:36.011Z,12.30
2023-02-27T23:54:04.401Z,13.00
2023-02-27T23:56:32.691Z,12.10
2023-02-27T23:59:06.727Z,10.50
